Time;durP1;ratioP1;P1;durP2;ratioP2;P2;SDS_P1;SDS_P2;PMS_P1;PMS_P2;Temp;Humidity;BMP_temperature;BMP_pressure;BME280_temperature;BME280_humidity;BME280_pressure;Samples;Min_cycle;Max_cycle;Signal;HPM_P1;HPM_P2
2022/04/18 00:02:24;;;;;;;2.03;1.90;;;7.00;90.30;;;;;;5136575;27;20207;-71
2022/04/18 00:04:51;;;;;;;1.80;1.67;;;6.90;90.50;;;;;;5117887;27;20243;-71
2022/04/18 00:07:21;;;;;;;3.70;2.33;;;7.00;90.50;;;;;;5118211;27;20206;-71
2022/04/18 00:09:47;;;;;;;7.45;3.30;;;6.90;90.40;;;;;;5117897;27;20199;-71
2022/04/18 00:12:13;;;;;;;10.50;3.80;;;6.90;90.40;;;;;;5136511;27;20178;-71
2022/04/18 00:14:40;;;;;;;8.38;4.78;;;6.90;90.50;;;;;;5117942;27;20199;-71
2022/04/18 00:17:09;;;;;;;10.10;4.80;;;6.80;90.50;;;;;;5101879;28;20240;-71
2022/04/18 00:19:41;;;;;;;7.40;2.80;;;6.70;90.60;;;;;;5097726;28;20199;-71
2022/04/18 00:22:10;;;;;;;4.10;3.10;;;6.70;90.70;;;;;;5097465;28;20208;-71
2022/04/18 00:24:50;;;;;;;5.72;3.15;;;6.70;90.80;;;;;;5097704;28;20192;-70
2022/04/18 00:27:23;;;;;;;3.60;3.00;;;6.60;90.90;;;;;;5116212;28;20164;-71
2022/04/18 00:29:50;;;;;;;3.35;2.03;;;6.60;91.00;;;;;;5096625;28;20199;-71
2022/04/18 00:32:17;;;;;;;3.42;2.75;;;6.60;91.00;;;;;;5097598;28;20180;-70
2022/04/18 00:34:44;;;;;;;2.40;2.20;;;6.60;91.00;;;;;;5097700;28;20204;-70
2022/04/18 00:37:11;;;;;;;2.97;2.38;;;6.60;91.10;;;;;;5097252;28;20184;-71
2022/04/18 00:39:38;;;;;;;2.58;2.08;;;6.50;91.20;;;;;;5096649;28;20295;-71
2022/04/18 00:42:05;;;;;;;1.95;1.70;;;6.50;91.40;;;;;;5096600;28;20215;-71
2022/04/18 00:44:37;;;;;;;2.90;2.60;;;6.50;91.30;;;;;;5096943;28;20782;-71
2022/04/18 00:47:06;;;;;;;2.00;1.80;;;6.50;91.50;;;;;;5096896;28;20404;-71
2022/04/18 00:49:33;;;;;;;1.70;1.60;;;6.40;91.40;;;;;;5095276;28;20212;-71
2022/04/18 00:52:01;;;;;;;3.80;2.03;;;6.40;91.40;;;;;;5097115;28;20183;-71
2022/04/18 00:54:28;;;;;;;1.83;1.40;;;6.40;91.50;;;;;;5096637;28;20677;-71
2022/04/18 00:56:54;;;;;;;5.60;2.20;;;6.30;91.50;;;;;;5109157;27;20223;-71
2022/04/18 00:59:22;;;;;;;3.10;2.35;;;6.30;91.50;;;;;;5117469;27;20191;-70
2022/04/18 01:01:51;;;;;;;3.95;2.22;;;6.20;91.60;;;;;;5116829;27;20690;-70
2022/04/18 01:04:17;;;;;;;2.08;1.88;;;6.10;91.60;;;;;;5117001;27;20290;-71
2022/04/18 01:06:43;;;;;;;2.95;2.25;;;6.10;92.00;;;;;;5117031;27;20319;-71
2022/04/18 01:09:12;;;;;;;2.67;2.33;;;6.00;91.80;;;;;;5116403;27;20294;-71
2022/04/18 01:11:38;;;;;;;1.98;1.77;;;6.00;91.80;;;;;;5116665;27;20172;-71
2022/04/18 01:14:09;;;;;;;3.85;2.13;;;5.90;92.00;;;;;;5135465;27;20171;-71
2022/04/18 01:16:36;;;;;;;2.78;2.00;;;5.90;92.10;;;;;;5117238;27;20628;-71
2022/04/18 01:19:04;;;;;;;2.15;1.80;;;5.80;92.20;;;;;;5116099;27;20179;-71
2022/04/18 01:21:31;;;;;;;3.22;2.13;;;5.80;92.20;;;;;;5116636;27;20210;-71
2022/04/18 01:23:57;;;;;;;3.65;2.10;;;5.70;92.30;;;;;;5116708;27;20569;-70
2022/04/18 01:29:10;;;;;;;3.17;2.00;;;5.70;92.50;;;;;;5135189;27;20602;-71
2022/04/18 01:31:38;;;;;;;2.30;1.63;;;5.60;92.60;;;;;;5116562;27;20560;-71
2022/04/18 01:34:09;;;;;;;1.88;1.63;;;5.60;92.70;;;;;;5116632;27;20167;-71
2022/04/18 01:36:39;;;;;;;3.45;2.05;;;5.60;92.80;;;;;;5116564;27;20691;-71
2022/04/18 01:39:07;;;;;;;1.77;1.55;;;5.60;92.80;;;;;;5116450;27;20168;-70
2022/04/18 01:41:40;;;;;;;1.98;1.85;;;5.60;92.90;;;;;;5116388;28;20219;-70
2022/04/18 01:44:07;;;;;;;2.85;2.25;;;5.50;93.00;;;;;;5116317;27;20604;-71
2022/04/18 01:46:38;;;;;;;2.35;1.90;;;5.50;93.10;;;;;;5116281;27;20178;-71
2022/04/18 01:49:05;;;;;;;2.10;1.50;;;5.50;93.20;;;;;;5116230;28;20214;-70
2022/04/18 01:51:35;;;;;;;2.25;2.00;;;5.40;93.30;;;;;;5116170;28;20203;-71
2022/04/18 01:54:01;;;;;;;1.90;1.75;;;5.40;93.40;;;;;;5116132;28;20167;-70
2022/04/18 01:56:27;;;;;;;3.50;1.77;;;5.30;93.50;;;;;;5112859;28;20742;-71
2022/04/18 01:58:53;;;;;;;2.50;1.35;;;5.30;93.60;;;;;;5131794;28;20513;-71
2022/04/18 02:01:26;;;;;;;2.10;1.77;;;5.30;93.70;;;;;;5116294;28;20263;-71
2022/04/18 02:03:58;;;;;;;2.90;2.70;;;5.30;93.80;;;;;;5115802;28;20170;-71
2022/04/18 02:06:27;;;;;;;3.08;2.20;;;5.20;93.70;;;;;;5116421;28;20188;-71
2022/04/18 02:09:04;;;;;;;3.85;1.90;;;5.20;93.80;;;;;;5116291;28;20182;-71
2022/04/18 02:11:31;;;;;;;2.58;1.67;;;5.10;93.80;;;;;;5134652;28;20673;-70
2022/04/18 02:13:58;;;;;;;2.25;1.60;;;5.10;93.90;;;;;;5116398;28;20171;-70
2022/04/18 02:16:28;;;;;;;2.25;1.88;;;5.00;94.00;;;;;;5105748;28;20188;-71
2022/04/18 02:18:54;;;;;;;2.10;1.75;;;5.00;94.10;;;;;;5096111;28;20632;-71
2022/04/18 02:21:25;;;;;;;4.07;2.38;;;4.90;94.30;;;;;;5099728;28;20679;-71
2022/04/18 02:23:56;;;;;;;1.70;1.60;;;4.90;94.50;;;;;;5099535;28;20175;-71
2022/04/18 02:26:24;;;;;;;5.07;2.53;;;4.90;94.50;;;;;;5099325;28;20186;-71
2022/04/18 02:28:50;;;;;;;2.70;2.05;;;5.00;94.60;;;;;;5099443;28;20172;-71
2022/04/18 02:31:16;;;;;;;4.80;2.00;;;5.00;94.40;;;;;;5099385;28;20232;-71
2022/04/18 02:33:43;;;;;;;2.13;1.80;;;5.00;94.50;;;;;;5099369;28;20182;-71
2022/04/18 02:36:09;;;;;;;1.83;1.73;;;4.90;94.50;;;;;;5099275;28;20199;-71
2022/04/18 02:38:35;;;;;;;2.58;1.90;;;4.90;94.70;;;;;;5099728;28;20753;-70
2022/04/18 02:41:06;;;;;;;2.00;1.88;;;4.90;94.90;;;;;;5099563;28;20207;-70
2022/04/18 02:43:33;;;;;;;2.60;2.05;;;4.90;95.10;;;;;;5097843;28;20192;-70
2022/04/18 02:46:08;;;;;;;1.83;1.60;;;4.90;95.20;;;;;;5099314;28;20569;-71
2022/04/18 02:48:35;;;;;;;3.15;2.30;;;4.90;95.30;;;;;;5099681;28;20189;-70
2022/04/18 02:51:15;;;;;;;3.65;3.13;;;4.90;95.60;;;;;;5099222;28;20736;-70
2022/04/18 02:53:40;;;;;;;3.97;3.17;;;4.90;95.60;;;;;;5099249;28;20184;-71
2022/04/18 02:56:10;;;;;;;6.33;3.73;;;5.00;95.40;;;;;;5106023;27;20235;-71
2022/04/18 02:58:38;;;;;;;5.60;4.05;;;5.00;95.50;;;;;;5118486;27;20197;-70
2022/04/18 03:01:08;;;;;;;4.88;3.95;;;4.90;95.40;;;;;;5119092;27;20310;-71
2022/04/18 03:03:35;;;;;;;6.35;3.20;;;4.90;95.60;;;;;;5119518;27;20228;-71
2022/04/18 03:06:01;;;;;;;4.00;2.90;;;4.90;95.90;;;;;;5137941;27;20191;-71
2022/04/18 03:08:28;;;;;;;7.15;3.15;;;4.90;95.90;;;;;;5119272;27;20183;-71
2022/04/18 03:11:08;;;;;;;3.08;2.55;;;4.80;95.70;;;;;;5117376;27;20678;-71
2022/04/18 03:13:37;;;;;;;4.30;2.90;;;4.80;95.80;;;;;;5119172;27;20240;-71
2022/04/18 03:16:04;;;;;;;4.68;2.40;;;4.70;95.80;;;;;;5118929;27;20206;-70
2022/04/18 03:18:32;;;;;;;4.15;2.65;;;4.70;95.90;;;;;;5137524;27;20171;-71
2022/04/18 03:20:58;;;;;;;3.13;2.25;;;4.70;96.00;;;;;;5119040;27;20215;-70
2022/04/18 03:23:24;;;;;;;2.30;2.07;;;4.70;96.10;;;;;;5136156;27;20179;-71
2022/04/18 03:25:51;;;;;;;2.83;2.63;;;4.70;96.10;;;;;;5135832;27;20243;-71
2022/04/18 03:28:25;;;;;;;2.55;2.30;;;4.60;96.20;;;;;;5118808;27;20180;-71
2022/04/18 03:30:51;;;;;;;4.60;3.47;;;4.60;96.50;;;;;;5135140;27;20225;-71
2022/04/18 03:33:16;;;;;;;2.97;2.40;;;4.50;96.50;;;;;;5135944;27;20236;-71
2022/04/18 03:41:30;;;;;;;8.10;4.68;;;4.40;97.00;;;;;;5137068;27;20284;-70
2022/04/18 03:43:55;;;;;;;5.53;2.38;;;4.40;97.00;;;;;;5118421;27;20171;-71
2022/04/18 03:46:31;;;;;;;4.53;3.38;;;4.40;97.20;;;;;;5135558;27;20175;-71
2022/04/18 03:49:03;;;;;;;4.07;3.00;;;4.40;97.20;;;;;;5118196;27;20174;-70
2022/04/18 03:51:31;;;;;;;3.63;2.30;;;4.40;97.20;;;;;;5118460;27;20175;-71
2022/04/18 03:54:02;;;;;;;4.13;3.47;;;4.30;97.50;;;;;;5118080;27;20594;-71
2022/04/18 03:56:31;;;;;;;3.45;2.60;;;4.30;97.50;;;;;;5107475;28;20801;-71
2022/04/18 03:59:00;;;;;;;5.18;3.35;;;4.30;97.70;;;;;;5097891;28;20211;-71
2022/04/18 04:01:26;;;;;;;4.60;2.67;;;4.30;97.80;;;;;;5098239;28;20664;-70
2022/04/18 04:03:53;;;;;;;5.47;3.72;;;4.20;97.80;;;;;;5097550;28;20172;-70
2022/04/18 04:06:19;;;;;;;7.10;4.82;;;4.20;97.80;;;;;;5098189;28;20191;-70
2022/04/18 04:08:45;;;;;;;5.80;4.18;;;4.20;98.10;;;;;;5097840;28;20172;-71
2022/04/18 04:11:11;;;;;;;8.88;4.28;;;4.10;98.10;;;;;;5097543;28;20199;-70
2022/04/18 04:13:37;;;;;;;7.97;3.38;;;4.10;98.30;;;;;;5115982;28;20172;-70
2022/04/18 04:16:05;;;;;;;4.90;2.50;;;4.10;98.40;;;;;;5097238;28;20198;-71
2022/04/18 04:18:31;;;;;;;4.97;2.65;;;4.10;98.50;;;;;;5097561;28;20667;-70
2022/04/18 04:20:58;;;;;;;3.13;2.83;;;4.00;98.70;;;;;;5097691;28;20216;-70
2022/04/18 04:23:28;;;;;;;3.10;2.40;;;4.00;98.80;;;;;;5097572;28;20412;-71
2022/04/18 04:25:54;;;;;;;2.90;2.55;;;4.00;99.00;;;;;;5097423;28;20199;-70
2022/04/18 04:28:22;;;;;;;3.33;2.58;;;4.00;99.10;;;;;;5097185;28;20176;-70
2022/04/18 04:30:48;;;;;;;2.92;2.42;;;4.10;99.30;;;;;;5115754;28;20214;-70
2022/04/18 04:33:15;;;;;;;3.17;2.70;;;4.10;99.10;;;;;;5096966;28;20180;-71
2022/04/18 04:35:41;;;;;;;2.95;2.20;;;4.10;99.30;;;;;;5097029;28;20200;-70
2022/04/18 04:38:07;;;;;;;2.40;2.20;;;4.20;99.30;;;;;;5097080;28;20258;-71
2022/04/18 04:40:34;;;;;;;6.53;2.97;;;4.20;99.30;;;;;;5097076;28;20827;-70
2022/04/18 04:43:01;;;;;;;3.53;2.35;;;4.20;99.60;;;;;;5095731;28;20180;-71
2022/04/18 04:45:43;;;;;;;3.50;2.47;;;4.30;99.40;;;;;;5096951;28;20216;-71
2022/04/18 04:48:10;;;;;;;5.57;3.20;;;4.30;99.70;;;;;;5096068;28;20221;-70
2022/04/18 04:50:40;;;;;;;3.90;2.35;;;4.30;99.70;;;;;;5096749;28;20200;-71
2022/04/18 04:53:16;;;;;;;3.35;2.05;;;4.40;99.60;;;;;;5096957;28;20180;-70
2022/04/18 04:55:44;;;;;;;4.47;2.40;;;4.40;99.70;;;;;;5097816;28;20231;-71
2022/04/18 04:58:13;;;;;;;4.63;2.40;;;4.50;99.80;;;;;;5116855;27;20178;-71
2022/04/18 05:00:39;;;;;;;3.00;2.70;;;4.50;99.90;;;;;;5117201;27;20258;-71
2022/04/18 05:03:07;;;;;;;5.18;2.92;;;4.60;99.90;;;;;;5116813;27;20534;-71
2022/04/18 05:05:41;;;;;;;3.95;2.70;;;4.60;99.90;;;;;;5116987;27;20203;-71
2022/04/18 05:08:08;;;;;;;2.97;2.33;;;4.70;99.90;;;;;;5117110;27;20531;-70
2022/04/18 05:10:34;;;;;;;5.85;3.08;;;4.80;99.90;;;;;;5116746;27;20207;-71
2022/04/18 05:13:02;;;;;;;3.50;2.30;;;4.90;99.90;;;;;;5116739;27;20179;-71
2022/04/18 05:15:33;;;;;;;3.40;2.65;;;5.00;99.90;;;;;;5114172;27;20571;-70
2022/04/18 05:18:01;;;;;;;7.43;3.85;;;5.10;99.90;;;;;;5096672;28;20636;-71
2022/04/18 05:20:28;;;;;;;3.05;2.05;;;5.20;99.90;;;;;;5096269;28;20211;-71
2022/04/18 05:22:55;;;;;;;3.78;3.20;;;5.30;99.90;;;;;;5096564;28;20207;-71
2022/04/18 05:25:22;;;;;;;2.83;2.55;;;5.40;99.90;;;;;;5112875;28;20232;-70
2022/04/18 05:27:49;;;;;;;6.10;2.90;;;5.40;99.90;;;;;;5096114;28;20187;-71
2022/04/18 05:30:15;;;;;;;4.82;3.17;;;5.50;99.90;;;;;;5096634;28;20656;-71
2022/04/18 05:32:43;;;;;;;8.88;3.35;;;5.60;99.90;;;;;;5096576;28;20191;-70
2022/04/18 05:35:09;;;;;;;5.85;2.60;;;5.70;99.90;;;;;;5096797;28;20682;-71
2022/04/18 05:37:35;;;;;;;6.68;3.90;;;5.80;99.90;;;;;;5096659;28;20179;-70
2022/04/18 05:40:04;;;;;;;5.63;3.40;;;5.90;99.90;;;;;;5096115;28;20221;-71
2022/04/18 05:42:30;;;;;;;4.65;3.63;;;6.00;99.90;;;;;;5096400;28;20481;-71
2022/04/18 05:45:00;;;;;;;4.85;2.70;;;6.00;99.90;;;;;;5095596;28;20252;-71
2022/04/18 05:47:29;;;;;;;3.38;2.97;;;6.20;99.70;;;;;;5114157;28;20179;-71
2022/04/18 05:49:58;;;;;;;3.90;2.78;;;6.30;99.50;;;;;;5095990;28;20200;-71
2022/04/18 05:52:28;;;;;;;3.67;2.45;;;6.40;99.50;;;;;;5095077;28;20180;-71
2022/04/18 05:54:57;;;;;;;2.53;2.20;;;6.50;99.40;;;;;;5095454;28;20196;-71
2022/04/18 05:57:24;;;;;;;5.65;2.50;;;6.60;99.20;;;;;;5095602;28;20227;-70
2022/04/18 05:59:51;;;;;;;2.90;2.35;;;6.70;99.10;;;;;;5095592;28;20248;-71
2022/04/18 06:02:17;;;;;;;3.92;2.05;;;6.90;99.00;;;;;;5096017;28;20207;-71
2022/04/18 06:04:43;;;;;;;3.50;2.80;;;7.00;98.60;;;;;;5095559;28;20195;-71
2022/04/18 06:07:13;;;;;;;3.43;2.53;;;7.10;98.60;;;;;;5095688;28;20203;-71
2022/04/18 06:09:39;;;;;;;3.13;2.05;;;7.20;98.40;;;;;;5095529;28;20566;-71
2022/04/18 06:12:06;;;;;;;3.90;2.15;;;7.30;98.30;;;;;;5095683;28;20644;-71
2022/04/18 06:14:34;;;;;;;2.55;2.20;;;7.50;98.20;;;;;;5095657;28;20200;-71
2022/04/18 06:17:00;;;;;;;3.47;2.03;;;7.60;97.90;;;;;;5095652;28;20580;-71
2022/04/18 06:19:29;;;;;;;4.43;2.47;;;7.70;97.80;;;;;;5095789;28;20702;-71
2022/04/18 06:21:56;;;;;;;3.03;2.33;;;7.80;97.60;;;;;;5095303;28;20450;-71
2022/04/18 06:24:22;;;;;;;3.40;2.57;;;7.90;97.30;;;;;;5095519;28;20200;-71
2022/04/18 06:26:49;;;;;;;2.38;1.98;;;8.10;97.30;;;;;;5095636;28;20951;-71
2022/04/18 06:29:15;;;;;;;2.55;1.92;;;8.20;96.80;;;;;;5113860;28;20620;-71
2022/04/18 06:31:55;;;;;;;2.27;2.13;;;8.30;96.50;;;;;;5095683;28;20373;-71
2022/04/18 06:34:25;;;;;;;4.47;2.20;;;8.40;96.30;;;;;;5095612;28;20828;-71
2022/04/18 06:36:55;;;;;;;2.78;2.47;;;8.50;96.10;;;;;;5095666;28;20184;-71
2022/04/18 06:39:23;;;;;;;2.70;1.73;;;8.60;95.90;;;;;;5095404;28;20192;-71
2022/04/18 06:41:50;;;;;;;2.67;2.03;;;8.70;95.60;;;;;;5095278;28;20292;-71
2022/04/18 06:44:16;;;;;;;2.57;2.30;;;8.80;95.60;;;;;;5095398;28;20188;-71
2022/04/18 06:46:42;;;;;;;2.53;2.30;;;8.90;95.50;;;;;;5113911;28;20404;-71
2022/04/18 06:49:08;;;;;;;3.88;1.90;;;9.00;95.50;;;;;;5096025;28;20180;-71
2022/04/18 06:51:35;;;;;;;2.65;2.20;;;9.20;95.50;;;;;;5094790;28;20187;-71
2022/04/18 06:54:02;;;;;;;4.00;2.63;;;9.30;95.10;;;;;;5095372;28;20257;-71
2022/04/18 06:59:22;;;;;;;2.75;2.08;;;9.50;94.70;;;;;;5113803;28;20797;-71
2022/04/18 07:01:56;;;;;;;1.80;1.67;;;9.50;94.50;;;;;;5095619;28;20219;-71
2022/04/18 07:04:26;;;;;;;3.20;2.00;;;9.60;94.50;;;;;;5095081;28;20191;-71
2022/04/18 07:06:54;;;;;;;3.20;2.72;;;9.70;94.40;;;;;;5096496;28;20183;-71
2022/04/18 07:09:20;;;;;;;2.30;2.00;;;9.80;94.60;;;;;;5098654;28;20198;-71
2022/04/18 07:11:46;;;;;;;3.38;1.92;;;9.90;94.40;;;;;;5098757;28;20474;-72
2022/04/18 07:14:16;;;;;;;3.63;2.40;;;10.00;94.20;;;;;;5098625;28;20198;-70
2022/04/18 07:16:44;;;;;;;1.58;1.45;;;10.10;94.30;;;;;;5110583;27;20190;-71
2022/04/18 07:19:24;;;;;;;4.22;2.88;;;10.20;93.90;;;;;;5118923;27;20289;-71
2022/04/18 07:22:04;;;;;;;2.13;1.95;;;10.30;93.20;;;;;;5118868;27;20240;-71
2022/04/18 07:24:30;;;;;;;3.08;1.58;;;10.40;93.20;;;;;;5119031;27;20194;-71
2022/04/18 07:27:00;;;;;;;2.17;1.90;;;10.50;93.10;;;;;;5118008;27;20554;-71
2022/04/18 07:29:29;;;;;;;2.92;2.22;;;10.60;93.20;;;;;;5118788;27;20273;-71
2022/04/18 07:31:56;;;;;;;1.88;1.73;;;10.70;92.40;;;;;;5119249;27;20176;-71
2022/04/18 07:34:29;;;;;;;2.05;1.83;;;10.80;92.30;;;;;;5119240;27;20248;-71
2022/04/18 07:36:55;;;;;;;3.15;1.38;;;10.90;91.90;;;;;;5118843;27;20558;-71
2022/04/18 07:39:27;;;;;;;1.83;1.73;;;11.00;91.60;;;;;;5118502;27;20195;-71
2022/04/18 07:41:58;;;;;;;2.63;2.05;;;11.10;91.40;;;;;;5118450;27;21018;-71
2022/04/18 07:44:24;;;;;;;2.67;2.47;;;11.20;90.80;;;;;;5118673;27;20286;-71
2022/04/18 07:46:51;;;;;;;1.85;1.48;;;11.40;90.90;;;;;;5118619;27;20202;-70
2022/04/18 07:49:17;;;;;;;2.55;1.38;;;11.50;90.90;;;;;;5118443;27;20205;-71
2022/04/18 07:51:43;;;;;;;3.20;1.70;;;11.60;90.20;;;;;;5118867;27;20650;-71
2022/04/18 07:54:14;;;;;;;2.23;1.30;;;11.80;90.00;;;;;;5118635;27;20269;-71
2022/04/18 07:56:47;;;;;;;5.18;1.85;;;11.80;88.70;;;;;;5118233;27;20470;-71
2022/04/18 07:59:13;;;;;;;1.80;1.70;;;11.90;88.70;;;;;;5118792;27;20223;-71
2022/04/18 08:01:51;;;;;;;2.80;2.30;;;12.00;88.50;;;;;;5118057;27;20214;-71
2022/04/18 08:04:19;;;;;;;2.38;1.70;;;12.10;87.90;;;;;;5118055;27;20243;-72
2022/04/18 08:06:49;;;;;;;1.97;1.77;;;12.10;88.00;;;;;;5118529;27;20179;-71
2022/04/18 08:09:18;;;;;;;3.05;2.35;;;12.20;86.50;;;;;;5117946;27;20566;-71
2022/04/18 08:11:51;;;;;;;2.42;1.65;;;12.30;86.60;;;;;;5117950;27;20233;-71
2022/04/18 08:14:19;;;;;;;1.77;1.67;;;12.40;86.20;;;;;;5118099;27;20244;-71
2022/04/18 08:16:46;;;;;;;2.90;1.98;;;12.50;86.70;;;;;;5104663;28;20648;-71
2022/04/18 08:19:17;;;;;;;2.55;2.35;;;12.70;86.80;;;;;;5097388;28;20626;-71
2022/04/18 08:21:43;;;;;;;2.20;2.00;;;12.80;87.30;;;;;;5116208;28;20692;-71
2022/04/18 08:24:12;;;;;;;2.50;2.17;;;12.90;86.10;;;;;;5097297;28;20460;-72
2022/04/18 08:26:45;;;;;;;2.70;2.20;;;13.00;85.20;;;;;;5097469;28;20182;-72
2022/04/18 08:29:11;;;;;;;3.27;2.23;;;13.10;85.00;;;;;;5097083;28;20448;-71
2022/04/18 08:31:38;;;;;;;1.97;1.67;;;13.20;85.10;;;;;;5097527;28;20434;-71
2022/04/18 08:34:04;;;;;;;4.20;2.05;;;13.30;85.40;;;;;;5115629;28;20920;-71
2022/04/18 08:36:30;;;;;;;2.23;2.00;;;13.40;85.90;;;;;;5097488;28;20262;-71
2022/04/18 08:38:56;;;;;;;2.53;1.97;;;13.60;84.60;;;;;;5097017;28;20931;-71
2022/04/18 08:41:24;;;;;;;3.63;2.60;;;13.70;84.00;;;;;;5097159;28;20587;-71
2022/04/18 08:43:55;;;;;;;2.20;2.00;;;13.80;85.10;;;;;;5097137;28;20171;-71
2022/04/18 08:46:22;;;;;;;3.00;2.30;;;13.90;83.30;;;;;;5097196;28;20533;-71
2022/04/18 08:54:26;;;;;;;2.37;1.83;;;14.50;82.50;;;;;;5115298;28;20485;-71
2022/04/18 08:56:52;;;;;;;2.83;2.30;;;15.20;82.80;;;;;;5107642;27;20466;-71
2022/04/18 08:59:18;;;;;;;2.23;1.90;;;16.00;78.50;;;;;;5116923;27;20534;-71
2022/04/18 09:01:52;;;;;;;3.23;2.60;;;16.60;76.50;;;;;;5117371;27;20986;-72
2022/04/18 09:04:22;;;;;;;2.60;2.13;;;16.90;75.70;;;;;;5116817;27;20442;-71
2022/04/18 09:06:49;;;;;;;4.07;2.27;;;17.10;75.60;;;;;;5116784;27;20995;-71
2022/04/18 09:09:15;;;;;;;3.03;2.07;;;17.30;73.40;;;;;;5117251;27;20500;-71
2022/04/18 09:11:45;;;;;;;2.40;2.20;;;17.30;71.80;;;;;;5116922;27;20911;-71
2022/04/18 09:14:18;;;;;;;2.37;2.17;;;17.10;71.20;;;;;;5116920;27;20435;-71
2022/04/18 09:16:44;;;;;;;2.60;2.10;;;16.90;71.30;;;;;;5113120;28;20471;-71
2022/04/18 09:19:16;;;;;;;5.37;2.53;;;16.60;71.90;;;;;;5116154;27;20443;-72
2022/04/18 09:22:02;;;;;;;3.30;3.00;;;16.30;72.70;;;;;;5116007;27;20875;-71
2022/04/18 09:24:38;;;;;;;2.40;2.00;;;16.20;74.00;;;;;;5095198;28;20524;-71
2022/04/18 09:27:23;;;;;;;3.00;2.30;;;16.00;72.80;;;;;;5094712;28;20435;-71
2022/04/18 09:30:30;;;;;;;2.83;2.50;;;16.00;73.80;;;;;;5094324;28;20505;-71
2022/04/18 09:33:06;;;;;;;2.40;2.20;;;16.10;72.00;;;;;;5015419;28;20450;-71
2022/04/18 09:35:33;;;;;;;2.73;2.30;;;16.20;72.80;;;;;;5084902;28;20526;-71
2022/04/18 09:38:08;;;;;;;4.03;3.20;;;16.20;73.30;;;;;;5095705;28;20420;-71
2022/04/18 09:40:43;;;;;;;3.30;2.17;;;16.30;72.60;;;;;;5095928;28;20471;-71
2022/04/18 09:43:11;;;;;;;3.17;2.87;;;16.30;73.60;;;;;;5114244;28;20420;-71
2022/04/18 09:45:37;;;;;;;3.20;2.90;;;16.30;72.50;;;;;;5096151;28;20784;-71
2022/04/18 09:48:06;;;;;;;3.23;2.27;;;16.20;71.50;;;;;;5095923;28;20423;-71
2022/04/18 09:53:30;;;;;;;4.37;2.80;;;16.00;72.10;;;;;;5114792;28;20447;-71
2022/04/18 09:56:00;;;;;;;3.53;2.57;;;15.80;73.10;;;;;;5095646;28;20524;-71
2022/04/18 09:58:26;;;;;;;3.33;2.67;;;15.60;72.10;;;;;;5096261;28;20415;-71
2022/04/18 10:00:54;;;;;;;3.47;3.17;;;15.50;71.10;;;;;;5095767;28;20478;-71
2022/04/18 10:03:20;;;;;;;2.63;2.43;;;15.30;71.60;;;;;;5095956;28;20776;-71
2022/04/18 10:05:52;;;;;;;2.30;2.03;;;15.10;72.00;;;;;;5096078;28;20455;-71
2022/04/18 10:08:19;;;;;;;2.80;2.37;;;15.00;72.30;;;;;;5096399;28;20403;-71
2022/04/18 10:10:50;;;;;;;2.50;1.90;;;14.90;72.00;;;;;;5096036;28;20443;-71
2022/04/18 10:13:20;;;;;;;4.73;2.60;;;14.80;71.30;;;;;;5095097;28;20420;-71
2022/04/18 10:15:48;;;;;;;2.70;2.50;;;14.60;70.10;;;;;;5096894;28;20811;-71
2022/04/18 10:18:18;;;;;;;2.70;2.37;;;14.60;71.60;;;;;;5096150;28;20431;-71
2022/04/18 10:21:01;;;;;;;2.40;2.13;;;14.60;72.50;;;;;;5095391;28;20537;-72
2022/04/18 10:23:54;;;;;;;3.13;2.70;;;14.80;73.30;;;;;;5114166;28;20792;-71
2022/04/18 10:26:58;;;;;;;4.40;2.90;;;14.90;72.40;;;;;;5095868;28;20517;-72
2022/04/18 10:29:50;;;;;;;4.00;3.00;;;15.10;73.40;;;;;;5095366;28;20505;-72
2022/04/18 10:32:24;;;;;;;8.80;4.30;;;15.10;73.00;;;;;;5096021;28;20430;-72
2022/04/18 10:35:01;;;;;;;7.17;5.37;;;15.10;71.30;;;;;;5095578;28;20436;-72
2022/04/18 10:37:28;;;;;;;19.47;11.90;;;15.00;70.00;;;;;;5095431;28;20769;-71
2022/04/18 10:39:57;;;;;;;20.30;12.10;;;14.70;72.00;;;;;;5095793;28;20456;-72
2022/04/18 10:42:43;;;;;;;9.60;7.83;;;14.50;73.90;;;;;;5099197;28;20467;-71
2022/04/18 10:45:20;;;;;;;3.47;2.70;;;14.30;75.10;;;;;;5098730;28;20453;-71
2022/04/18 10:47:55;;;;;;;3.73;3.40;;;14.10;74.80;;;;;;5099076;28;20428;-71
2022/04/18 10:50:24;;;;;;;3.07;2.87;;;14.00;75.50;;;;;;5117728;28;20477;-71
2022/04/18 10:53:34;;;;;;;4.90;3.23;;;13.90;75.70;;;;;;5099090;28;21001;-71
2022/04/18 10:56:00;;;;;;;2.60;2.30;;;13.80;73.90;;;;;;5116566;28;21007;-71
2022/04/18 10:58:36;;;;;;;3.23;3.00;;;13.70;74.00;;;;;;5099041;28;20416;-71
2022/04/18 11:01:11;;;;;;;3.30;3.00;;;13.70;74.30;;;;;;5098448;28;20222;-71
2022/04/18 11:03:37;;;;;;;4.90;2.93;;;13.70;75.00;;;;;;5099012;28;20465;-71
2022/04/18 11:06:09;;;;;;;4.40;4.00;;;13.80;74.90;;;;;;5117765;28;20826;-72
2022/04/18 11:08:39;;;;;;;4.50;3.00;;;13.80;74.70;;;;;;5098905;28;20175;-71
2022/04/18 11:11:17;;;;;;;5.10;4.27;;;14.00;73.60;;;;;;5098958;28;20436;-71
2022/04/18 11:13:48;;;;;;;9.07;5.50;;;14.10;73.40;;;;;;5098840;28;20432;-71
2022/04/18 11:16:23;;;;;;;7.50;5.20;;;14.20;73.10;;;;;;5107718;27;20458;-71
2022/04/18 11:19:16;;;;;;;13.37;8.50;;;14.30;70.80;;;;;;5118448;27;20776;-71
2022/04/18 11:21:57;;;;;;;20.30;11.60;;;14.30;68.10;;;;;;5090011;27;20482;-72
2022/04/18 11:24:53;;;;;;;27.30;13.10;;;14.30;67.60;;;;;;5118785;27;20827;-72
2022/04/18 11:27:20;;;;;;;28.60;12.63;;;14.30;67.30;;;;;;5118739;27;20835;-71
2022/04/18 11:29:54;;;;;;;17.97;9.30;;;14.40;68.80;;;;;;5118603;27;20496;-71
2022/04/18 11:32:24;;;;;;;13.10;8.57;;;14.40;69.80;;;;;;5137238;27;20984;-71
2022/04/18 11:34:53;;;;;;;7.90;4.97;;;14.40;70.10;;;;;;5118866;27;20455;-71
2022/04/18 11:37:33;;;;;;;4.80;4.00;;;14.50;70.20;;;;;;5118623;27;20924;-71
2022/04/18 11:40:04;;;;;;;7.17;5.07;;;14.60;75.10;;;;;;5135845;27;20455;-71
2022/04/18 11:42:39;;;;;;;6.27;4.50;;;14.70;75.90;;;;;;5118596;27;20473;-72
2022/04/18 11:45:20;;;;;;;3.90;3.60;;;14.60;76.60;;;;;;5118704;27;20858;-71
2022/04/18 11:47:50;;;;;;;6.70;3.57;;;14.60;77.30;;;;;;5118512;27;20407;-71
2022/04/18 11:50:24;;;;;;;7.03;4.97;;;14.60;78.40;;;;;;5118341;27;20447;-71
2022/04/18 11:53:06;;;;;;;4.87;3.90;;;14.50;77.90;;;;;;5117642;27;20419;-71
2022/04/18 11:55:42;;;;;;;4.00;3.70;;;14.40;78.60;;;;;;5118233;27;20486;-71
2022/04/18 11:58:10;;;;;;;4.27;3.87;;;14.20;81.00;;;;;;5118158;27;20787;-71
2022/04/18 12:09:01;;;;;;;9.70;7.20;;;13.60;83.40;;;;;;5136626;27;20438;-70
2022/04/18 12:11:38;;;;;;;13.90;9.47;;;13.40;83.70;;;;;;5117900;27;20833;-71
2022/04/18 12:14:04;;;;;;;11.53;8.07;;;13.30;84.10;;;;;;5118021;27;20415;-70
2022/04/18 12:16:37;;;;;;;3.95;3.45;;;13.10;83.40;;;;;;5106683;28;20420;-71
2022/04/18 12:19:05;;;;;;;7.23;6.50;;;13.10;83.00;;;;;;5115485;28;20163;-71
2022/04/18 12:21:34;;;;;;;3.23;2.80;;;12.90;82.70;;;;;;5097337;28;20573;-71
2022/04/18 12:24:02;;;;;;;4.97;3.72;;;12.80;82.50;;;;;;5095908;28;20428;-71
2022/04/18 12:26:40;;;;;;;4.13;3.17;;;12.80;82.90;;;;;;5097320;28;20194;-71
2022/04/18 12:29:10;;;;;;;2.60;2.28;;;12.70;81.90;;;;;;5097333;28;20171;-71
2022/04/18 12:31:44;;;;;;;5.00;2.58;;;12.70;80.90;;;;;;5097531;28;20189;-71
2022/04/18 12:34:20;;;;;;;3.28;2.90;;;12.70;81.40;;;;;;5097019;28;20207;-71
2022/04/18 12:37:03;;;;;;;3.25;2.33;;;12.70;80.80;;;;;;5096973;28;20183;-71
2022/04/18 12:39:33;;;;;;;2.70;2.38;;;12.80;80.10;;;;;;5096958;28;20192;-71
2022/04/18 12:42:10;;;;;;;2.10;1.90;;;12.80;79.80;;;;;;5096852;28;20217;-71
2022/04/18 12:44:39;;;;;;;3.00;2.80;;;12.80;80.80;;;;;;5096882;28;20520;-71
2022/04/18 12:47:21;;;;;;;5.10;3.17;;;12.90;82.00;;;;;;5096841;28;20191;-71
2022/04/18 12:50:07;;;;;;;5.60;2.63;;;13.00;81.70;;;;;;5096946;28;20451;-71
2022/04/18 12:52:33;;;;;;;3.80;3.40;;;13.10;81.90;;;;;;5097327;28;20198;-71
2022/04/18 12:55:06;;;;;;;7.63;3.10;;;13.20;82.10;;;;;;5096621;28;20192;-71
2022/04/18 12:57:39;;;;;;;3.77;3.10;;;13.40;82.10;;;;;;5111568;28;20296;-71
2022/04/18 13:00:14;;;;;;;5.50;3.00;;;13.60;81.00;;;;;;5116065;27;20446;-71
2022/04/18 13:03:01;;;;;;;7.63;2.47;;;13.90;81.00;;;;;;5116327;27;21014;-71
2022/04/18 13:05:31;;;;;;;7.33;2.23;;;14.10;80.00;;;;;;5115120;27;20443;-71
2022/04/18 13:08:10;;;;;;;9.93;3.03;;;14.30;80.50;;;;;;5117175;27;20872;-72
2022/04/18 13:10:37;;;;;;;2.80;2.53;;;14.40;79.90;;;;;;5115984;27;20442;-71
2022/04/18 13:13:15;;;;;;;4.37;2.73;;;14.40;79.40;;;;;;5116789;27;20812;-71
2022/04/18 13:15:42;;;;;;;5.50;2.83;;;14.30;80.40;;;;;;5117157;27;20783;-71
2022/04/18 13:18:18;;;;;;;4.53;2.50;;;14.30;81.30;;;;;;5116200;27;20417;-71
2022/04/18 13:20:46;;;;;;;2.87;2.57;;;14.40;81.00;;;;;;5116970;27;20595;-71
2022/04/18 13:23:18;;;;;;;3.67;2.10;;;14.40;80.60;;;;;;5116726;27;20911;-72
2022/04/18 13:25:51;;;;;;;2.20;1.60;;;14.50;80.00;;;;;;5116846;27;20439;-72
2022/04/18 13:28:22;;;;;;;1.90;1.53;;;14.60;79.40;;;;;;5135076;27;20390;-71
2022/04/18 13:30:51;;;;;;;2.30;2.10;;;14.50;78.80;;;;;;5116015;27;20463;-71
2022/04/18 13:33:17;;;;;;;2.57;2.20;;;14.50;79.50;;;;;;5138437;27;20492;-71
2022/04/18 13:38:29;;;;;;;2.73;1.87;;;14.10;79.10;;;;;;5147853;27;20398;-71
2022/04/18 13:40:58;;;;;;;4.73;2.00;;;13.80;76.30;;;;;;5152322;27;20970;-71